Time;durP1;ratioP1;P1;durP2;ratioP2;P2;SDS_P1;SDS_P2;PMS_P1;PMS_P2;Temp;Humidity;BMP_temperature;BMP_pressure;BME280_temperature;BME280_humidity;BME280_pressure;Samples;Min_cycle;Max_cycle;Signal;HPM_P1;HPM_P2
2022/03/11 00:00:43;;;;;;;19.80;16.33;;;5.00;99.90;;;;;;4920724;28;90179;-31
2022/03/11 00:03:10;;;;;;;21.50;17.25;;;4.90;99.90;;;;;;4920099;28;89282;-31
2022/03/11 00:05:36;;;;;;;16.10;14.57;;;4.80;99.90;;;;;;4920700;28;90512;-35
2022/03/11 00:08:03;;;;;;;19.83;16.27;;;4.90;99.90;;;;;;4920337;28;88273;-34
2022/03/11 00:10:29;;;;;;;18.05;15.25;;;4.90;99.90;;;;;;4970212;23;90117;-30
2022/03/11 00:12:55;;;;;;;20.50;15.13;;;5.00;99.90;;;;;;4958387;28;90492;-32
2022/03/11 00:15:21;;;;;;;16.98;15.18;;;5.00;99.90;;;;;;4958799;28;90135;-31
2022/03/11 00:17:47;;;;;;;24.35;16.30;;;4.90;99.90;;;;;;4958987;28;89068;-30
2022/03/11 00:20:19;;;;;;;16.88;14.13;;;5.00;99.90;;;;;;4959019;28;90481;-35
2022/03/11 00:22:45;;;;;;;16.80;14.32;;;5.10;99.90;;;;;;4958600;28;89768;-32
2022/03/11 00:25:10;;;;;;;20.77;15.00;;;5.20;99.90;;;;;;4959089;28;89553;-31
2022/03/11 00:27:36;;;;;;;17.83;15.35;;;5.00;99.90;;;;;;4958782;28;89104;-32
2022/03/11 00:30:03;;;;;;;17.48;15.18;;;4.90;99.90;;;;;;4959558;28;90676;-34
2022/03/11 00:32:28;;;;;;;17.13;13.90;;;4.80;99.90;;;;;;4958534;28;88348;-33
2022/03/11 00:34:54;;;;;;;16.48;13.45;;;4.90;99.90;;;;;;4958174;28;88749;-36
2022/03/11 00:37:19;;;;;;;19.48;14.30;;;4.90;99.90;;;;;;4958657;28;89014;-31
2022/03/11 00:39:45;;;;;;;18.77;13.50;;;4.90;99.90;;;;;;4959161;28;89953;-35
2022/03/11 00:42:10;;;;;;;17.55;14.25;;;4.90;99.90;;;;;;4959201;28;90197;-31
2022/03/11 00:44:36;;;;;;;23.58;13.38;;;4.80;99.90;;;;;;4958045;28;89635;-32
2022/03/11 00:47:02;;;;;;;20.25;14.88;;;4.80;99.90;;;;;;4959001;28;88380;-35
2022/03/11 00:49:28;;;;;;;23.00;14.43;;;4.80;99.90;;;;;;4958158;28;90855;-32
2022/03/11 00:51:53;;;;;;;16.75;14.55;;;4.70;99.90;;;;;;4961296;28;88582;-34
2022/03/11 00:54:19;;;;;;;22.17;14.27;;;4.70;99.90;;;;;;4962652;28;90130;-31
2022/03/11 00:56:44;;;;;;;16.23;13.52;;;4.80;99.90;;;;;;4961659;28;89139;-31
2022/03/11 00:59:10;;;;;;;14.35;12.77;;;4.80;99.90;;;;;;4962191;28;90299;-32
2022/03/11 01:01:35;;;;;;;14.85;13.10;;;4.70;99.90;;;;;;4960589;28;91056;-33
2022/03/11 01:04:01;;;;;;;18.40;13.90;;;4.60;99.90;;;;;;4962174;28;89299;-31
2022/03/11 01:06:26;;;;;;;14.27;12.32;;;4.50;99.90;;;;;;4961559;28;89605;-30
2022/03/11 01:08:52;;;;;;;17.15;14.05;;;4.60;99.90;;;;;;4961839;28;89514;-33
2022/03/11 01:11:17;;;;;;;19.13;12.82;;;4.60;99.90;;;;;;4961087;28;89976;-33
2022/03/11 01:13:43;;;;;;;17.85;13.73;;;4.50;99.90;;;;;;4961116;28;89612;-32
2022/03/11 01:16:08;;;;;;;17.38;13.57;;;4.70;99.90;;;;;;4962214;28;88519;-32
2022/03/11 01:18:35;;;;;;;22.38;14.88;;;4.70;99.90;;;;;;4943625;28;90478;-34
2022/03/11 01:21:00;;;;;;;18.80;13.57;;;4.70;99.90;;;;;;4961684;28;89645;-37
2022/03/11 01:23:26;;;;;;;19.75;14.55;;;4.70;99.90;;;;;;4961016;28;89747;-33
2022/03/11 01:25:51;;;;;;;15.32;12.43;;;4.70;99.90;;;;;;4960883;28;89820;-37
2022/03/11 01:28:17;;;;;;;21.05;14.70;;;4.60;99.90;;;;;;4961422;28;90246;-31
2022/03/11 01:30:43;;;;;;;18.73;13.80;;;4.60;99.90;;;;;;4961333;28;89260;-30
2022/03/11 01:33:08;;;;;;;18.70;14.25;;;4.60;99.90;;;;;;4961507;28;90713;-32
2022/03/11 01:35:34;;;;;;;24.00;15.30;;;4.70;99.90;;;;;;4960948;28;90033;-32
2022/03/11 01:37:59;;;;;;;18.92;14.70;;;4.60;99.90;;;;;;4961680;28;90110;-34
2022/03/11 01:40:25;;;;;;;21.27;13.60;;;4.60;99.90;;;;;;4961370;28;89993;-34
2022/03/11 01:42:51;;;;;;;19.48;14.65;;;4.50;99.90;;;;;;4961009;28;89659;-33
2022/03/11 01:45:17;;;;;;;19.67;15.52;;;4.50;99.90;;;;;;4961412;28;88281;-34
2022/03/11 01:47:43;;;;;;;20.48;16.27;;;4.40;99.90;;;;;;4960477;28;90047;-33
2022/03/11 01:50:09;;;;;;;17.38;12.63;;;4.40;99.90;;;;;;4960766;28;90626;-32
2022/03/11 01:52:37;;;;;;;20.15;14.85;;;4.40;99.90;;;;;;4960717;28;91690;-33
2022/03/11 01:55:04;;;;;;;27.80;18.08;;;4.50;99.90;;;;;;4961130;28;88863;-37
2022/03/11 01:57:35;;;;;;;20.40;16.42;;;4.40;99.90;;;;;;4960740;28;89304;-31
2022/03/11 02:00:03;;;;;;;19.35;15.45;;;4.30;99.90;;;;;;4960344;28;89694;-30
2022/03/11 02:02:29;;;;;;;21.77;16.98;;;4.30;99.90;;;;;;4959408;28;89949;-35
2022/03/11 02:04:54;;;;;;;23.52;16.70;;;4.30;99.90;;;;;;4961439;28;88471;-33
2022/03/11 02:07:20;;;;;;;18.38;15.15;;;4.50;99.90;;;;;;4960695;28;90349;-31
2022/03/11 02:09:46;;;;;;;22.73;17.58;;;4.40;99.90;;;;;;4960408;28;90049;-34
2022/03/11 02:12:25;;;;;;;24.00;18.05;;;4.40;99.90;;;;;;4960205;28;89927;-34
2022/03/11 02:14:51;;;;;;;21.67;16.13;;;4.30;99.90;;;;;;4960317;28;87939;-33
2022/03/11 02:17:16;;;;;;;24.27;18.63;;;4.40;99.90;;;;;;4960464;28;90929;-31
2022/03/11 02:19:42;;;;;;;15.93;14.07;;;4.40;99.90;;;;;;4961014;28;91729;-32
2022/03/11 02:22:08;;;;;;;25.45;19.50;;;4.40;99.90;;;;;;4960250;28;89233;-31
2022/03/11 02:24:34;;;;;;;23.90;18.23;;;4.30;99.90;;;;;;4960783;28;87831;-33
2022/03/11 02:27:00;;;;;;;23.77;18.13;;;4.20;99.90;;;;;;4960411;28;89439;-31
2022/03/11 02:29:25;;;;;;;29.10;20.73;;;4.10;99.90;;;;;;4960699;28;89419;-35
2022/03/11 02:31:51;;;;;;;29.40;19.92;;;4.20;99.90;;;;;;4960730;28;88982;-35
2022/03/11 02:34:16;;;;;;;22.55;18.67;;;4.20;99.90;;;;;;4959511;28;89719;-35
2022/03/11 02:36:42;;;;;;;26.67;21.25;;;4.10;99.90;;;;;;4960040;28;90667;-32
2022/03/11 02:39:07;;;;;;;27.45;19.60;;;4.20;99.90;;;;;;4959402;28;90634;-30
2022/03/11 02:41:33;;;;;;;29.17;19.30;;;4.20;99.90;;;;;;4960428;28;90546;-31
2022/03/11 02:43:59;;;;;;;31.10;21.67;;;4.10;99.90;;;;;;4960805;28;89396;-33
2022/03/11 02:46:24;;;;;;;27.40;21.52;;;4.10;99.90;;;;;;4959883;28;90095;-35
2022/03/11 02:48:50;;;;;;;30.02;21.92;;;4.10;99.90;;;;;;4959628;28;89302;-32
2022/03/11 02:51:15;;;;;;;27.55;21.10;;;4.10;99.90;;;;;;4959861;28;88352;-32
2022/03/11 02:53:42;;;;;;;26.15;20.08;;;4.20;99.90;;;;;;4960550;28;89545;-32
2022/03/11 02:56:08;;;;;;;26.45;23.00;;;4.10;99.90;;;;;;4959939;28;90756;-33
2022/03/11 02:58:35;;;;;;;26.65;21.05;;;4.00;99.90;;;;;;4959568;28;89639;-33
2022/03/11 03:01:02;;;;;;;27.50;22.15;;;3.90;99.90;;;;;;4960425;28;89279;-32
2022/03/11 03:03:28;;;;;;;27.27;21.02;;;3.90;99.90;;;;;;4958957;28;89767;-34
2022/03/11 03:05:53;;;;;;;34.80;22.98;;;3.90;99.90;;;;;;4959798;28;88759;-32
2022/03/11 03:08:19;;;;;;;34.17;21.67;;;3.80;99.90;;;;;;4959487;28;89491;-37
2022/03/11 03:10:44;;;;;;;34.55;24.33;;;3.90;99.90;;;;;;4959053;28;89716;-33
2022/03/11 03:13:13;;;;;;;29.27;21.52;;;3.90;99.90;;;;;;4960225;28;88605;-31
2022/03/11 03:15:38;;;;;;;32.22;24.63;;;3.80;99.90;;;;;;4959382;28;89280;-31
2022/03/11 03:18:04;;;;;;;31.70;24.13;;;3.80;99.90;;;;;;4958888;28;89777;-33
2022/03/11 03:20:30;;;;;;;31.08;23.75;;;3.80;99.90;;;;;;4959933;28;90264;-31
2022/03/11 03:22:55;;;;;;;29.30;22.65;;;3.80;99.90;;;;;;4959756;28;88888;-33
2022/03/11 03:25:21;;;;;;;28.08;23.60;;;3.80;99.90;;;;;;4959825;28;90607;-33
2022/03/11 03:27:46;;;;;;;29.35;20.77;;;3.80;99.90;;;;;;4958864;28;90999;-34
2022/03/11 03:30:12;;;;;;;30.95;23.52;;;3.80;99.90;;;;;;4959155;28;90448;-35
2022/03/11 03:32:41;;;;;;;33.10;25.30;;;3.90;99.90;;;;;;4959351;28;88353;-32
2022/03/11 03:35:08;;;;;;;37.47;25.95;;;3.80;99.90;;;;;;4959579;28;89076;-33
2022/03/11 03:37:34;;;;;;;31.65;21.67;;;3.80;99.90;;;;;;4959033;28;89285;-33
2022/03/11 03:40:00;;;;;;;28.92;21.83;;;3.70;99.90;;;;;;4959232;28;89929;-34
2022/03/11 03:42:26;;;;;;;31.75;25.05;;;3.60;99.90;;;;;;4959061;28;88203;-32
2022/03/11 03:44:53;;;;;;;30.45;25.10;;;3.60;99.90;;;;;;4959822;28;88918;-33
2022/03/11 03:47:20;;;;;;;29.45;24.30;;;3.50;99.90;;;;;;4959713;28;89707;-31
2022/03/11 03:49:45;;;;;;;36.53;27.13;;;3.50;99.90;;;;;;4959040;28;91024;-33
2022/03/11 03:52:12;;;;;;;30.02;20.65;;;3.50;99.90;;;;;;4958590;28;88518;-35
2022/03/11 03:54:39;;;;;;;35.03;27.35;;;3.40;99.90;;;;;;4958709;28;90295;-30
2022/03/11 03:57:06;;;;;;;34.10;23.60;;;3.50;99.90;;;;;;4941243;28;91227;-33
2022/03/11 03:59:32;;;;;;;28.00;24.45;;;3.50;99.90;;;;;;4958768;28;89602;-32
2022/03/11 04:01:57;;;;;;;42.47;27.52;;;3.50;99.90;;;;;;4959755;28;87516;-32
2022/03/11 04:04:23;;;;;;;36.72;26.58;;;3.40;99.90;;;;;;4940822;28;89903;-33
2022/03/11 04:06:48;;;;;;;28.15;20.38;;;3.40;99.90;;;;;;4959119;28;89686;-33
2022/03/11 04:09:14;;;;;;;30.40;22.33;;;3.40;99.90;;;;;;4959269;28;89546;-32
2022/03/11 04:11:40;;;;;;;35.20;27.40;;;3.50;99.90;;;;;;4958996;28;88211;-33
2022/03/11 04:14:06;;;;;;;34.88;26.00;;;3.40;99.90;;;;;;4958854;28;91536;-31
2022/03/11 04:16:32;;;;;;;35.65;26.98;;;3.50;99.90;;;;;;4957687;28;91415;-30
2022/03/11 04:18:59;;;;;;;42.72;29.58;;;3.50;99.90;;;;;;4958516;28;90847;-33
2022/03/11 04:21:24;;;;;;;37.10;26.58;;;3.40;99.90;;;;;;4959133;28;88808;-33
2022/03/11 04:23:51;;;;;;;41.03;28.08;;;3.40;99.90;;;;;;4958386;28;90172;-33
2022/03/11 04:26:17;;;;;;;40.92;30.42;;;3.30;99.90;;;;;;4943447;28;89077;-31
2022/03/11 04:28:43;;;;;;;35.00;25.23;;;3.20;99.90;;;;;;4944277;28;91138;-33
2022/03/11 04:31:11;;;;;;;37.80;26.75;;;3.30;99.90;;;;;;4962680;28;88136;-33
2022/03/11 04:33:37;;;;;;;;;;;3.30;99.90;;;;;;4963143;28;90371;-32
2022/03/11 04:36:04;;;;;;;36.05;24.00;;;3.20;99.90;;;;;;4964024;28;88544;-35
2022/03/11 04:38:33;;;;;;;36.33;26.70;;;3.20;99.90;;;;;;4961987;28;88552;-30
2022/03/11 04:41:00;;;;;;;33.17;23.63;;;3.20;99.90;;;;;;4961858;28;87905;-34
2022/03/11 04:43:26;;;;;;;33.70;24.30;;;3.20;99.90;;;;;;4962600;28;89048;-32
2022/03/11 04:45:51;;;;;;;34.75;25.67;;;3.20;99.90;;;;;;4961434;28;90164;-32
2022/03/11 04:48:18;;;;;;;35.85;26.23;;;3.10;99.90;;;;;;4961529;28;90098;-32
2022/03/11 04:50:43;;;;;;;25.95;19.98;;;3.00;99.90;;;;;;4945165;28;89035;-31
2022/03/11 04:53:09;;;;;;;33.17;23.45;;;3.00;99.90;;;;;;4961614;28;90413;-31
2022/03/11 04:55:35;;;;;;;32.45;26.13;;;3.00;99.90;;;;;;4961385;28;89519;-30
2022/03/11 04:58:00;;;;;;;39.65;30.58;;;3.00;99.90;;;;;;4961693;28;89898;-30
2022/03/11 05:00:26;;;;;;;35.05;27.85;;;3.00;99.90;;;;;;4961927;28;89341;-37
2022/03/11 05:02:52;;;;;;;34.97;23.17;;;2.90;99.90;;;;;;4961607;28;90174;-32
2022/03/11 05:05:18;;;;;;;33.35;27.60;;;2.90;99.90;;;;;;4960702;28;91055;-32
2022/03/11 05:07:43;;;;;;;37.85;23.65;;;2.80;99.90;;;;;;4961873;28;89623;-32
2022/03/11 05:10:11;;;;;;;35.25;27.27;;;2.80;99.90;;;;;;4960989;28;89818;-32
2022/03/11 05:12:37;;;;;;;30.73;23.63;;;2.80;99.90;;;;;;4961262;28;90111;-33
2022/03/11 05:15:05;;;;;;;33.92;26.02;;;2.80;99.90;;;;;;4961678;28;90441;-31
2022/03/11 05:17:31;;;;;;;37.05;28.00;;;2.80;99.90;;;;;;4961131;28;90165;-32
2022/03/11 05:19:57;;;;;;;41.22;27.00;;;2.70;99.90;;;;;;4961348;28;88958;-31
2022/03/11 05:22:22;;;;;;;37.95;26.77;;;2.70;99.90;;;;;;4961724;28;90149;-32
2022/03/11 05:24:48;;;;;;;33.00;25.67;;;2.70;99.90;;;;;;4960754;28;90103;-32
2022/03/11 05:27:14;;;;;;;24.77;17.80;;;2.80;99.90;;;;;;4961518;28;88949;-31
2022/03/11 05:29:40;;;;;;;35.13;25.48;;;2.70;99.90;;;;;;4960223;28;89750;-32
2022/03/11 05:32:07;;;;;;;34.42;25.77;;;2.70;99.90;;;;;;4961340;28;90209;-32
2022/03/11 05:34:33;;;;;;;35.70;27.75;;;2.80;99.90;;;;;;4961459;28;89498;-33
2022/03/11 05:36:59;;;;;;;37.65;27.85;;;2.70;99.90;;;;;;4961032;28;90270;-32
2022/03/11 05:39:24;;;;;;;38.20;26.10;;;2.70;99.90;;;;;;4961147;28;89101;-33
2022/03/11 05:41:50;;;;;;;37.60;26.08;;;2.60;99.90;;;;;;4961377;28;89294;-31
2022/03/11 05:44:19;;;;;;;43.35;27.83;;;2.70;99.90;;;;;;4960208;28;89566;-34
2022/03/11 05:46:45;;;;;;;;;;;2.60;99.90;;;;;;4962036;28;89661;-34
2022/03/11 05:49:12;;;;;;;34.05;21.95;;;2.60;99.90;;;;;;4945838;28;88669;-32
2022/03/11 05:51:37;;;;;;;38.47;26.15;;;2.60;99.90;;;;;;4960354;28;91129;-33
2022/03/11 05:54:06;;;;;;;34.60;24.92;;;2.70;99.90;;;;;;4960390;28;91077;-31
2022/03/11 05:56:32;;;;;;;43.08;29.60;;;2.70;99.90;;;;;;4960483;28;89608;-34
2022/03/11 05:58:58;;;;;;;30.25;23.27;;;2.70;99.90;;;;;;4961097;28;89596;-34
2022/03/11 06:01:23;;;;;;;28.63;19.85;;;2.60;99.90;;;;;;4959980;28;90856;-31
2022/03/11 06:03:49;;;;;;;35.42;24.90;;;2.60;99.90;;;;;;4961382;28;89651;-31
2022/03/11 06:06:15;;;;;;;32.40;25.48;;;2.60;99.90;;;;;;4960372;28;89440;-33
2022/03/11 06:08:42;;;;;;;36.42;28.05;;;2.70;99.90;;;;;;4961696;28;89721;-31
2022/03/11 06:11:08;;;;;;;37.55;27.05;;;2.60;99.90;;;;;;4960508;28;91022;-32
2022/03/11 06:13:35;;;;;;;37.10;26.95;;;2.50;99.90;;;;;;4959867;28;89973;-31
2022/03/11 06:16:01;;;;;;;31.23;22.80;;;2.60;99.90;;;;;;4960625;28;89853;-35
2022/03/11 06:18:27;;;;;;;30.98;21.85;;;2.60;99.90;;;;;;4960034;28;89384;-33
2022/03/11 06:20:52;;;;;;;36.40;28.50;;;2.60;99.90;;;;;;4961189;28;88618;-33
2022/03/11 06:23:18;;;;;;;27.77;21.95;;;2.60;99.90;;;;;;4960592;28;88980;-34
2022/03/11 06:25:44;;;;;;;31.05;23.77;;;2.60;99.90;;;;;;4960253;28;89716;-34
2022/03/11 06:28:09;;;;;;;36.78;27.77;;;2.70;99.90;;;;;;4960327;28;88314;-32
2022/03/11 06:30:37;;;;;;;36.60;24.58;;;2.60;99.90;;;;;;4960003;28;90110;-34
2022/03/11 06:33:03;;;;;;;37.78;28.60;;;2.50;99.90;;;;;;4959903;28;89349;-34
2022/03/11 06:35:29;;;;;;;37.17;27.75;;;2.60;99.90;;;;;;4960275;28;89331;-31
2022/03/11 06:37:54;;;;;;;32.85;25.55;;;2.50;99.90;;;;;;4959960;28;89042;-33
2022/03/11 06:40:20;;;;;;;39.85;25.67;;;2.60;99.90;;;;;;4960034;28;90380;-31
2022/03/11 06:42:48;;;;;;;35.90;27.42;;;2.60;99.90;;;;;;4960400;28;90766;-32
2022/03/11 06:45:15;;;;;;;36.27;26.03;;;2.60;99.90;;;;;;4959976;28;91858;-31
2022/03/11 06:47:41;;;;;;;34.97;26.08;;;2.70;99.90;;;;;;4959060;28;89036;-32
2022/03/11 06:50:08;;;;;;;40.65;28.33;;;2.80;99.90;;;;;;4960703;28;88940;-31
2022/03/11 06:52:34;;;;;;;36.78;25.20;;;2.80;99.90;;;;;;4959931;28;88819;-33
2022/03/11 06:55:01;;;;;;;32.40;23.52;;;2.90;99.90;;;;;;4959700;28;89618;-33
2022/03/11 06:57:26;;;;;;;32.13;22.70;;;2.90;99.90;;;;;;4960220;28;90279;-32
2022/03/11 06:59:52;;;;;;;37.65;25.00;;;2.90;99.90;;;;;;4960034;28;90850;-32
2022/03/11 07:02:18;;;;;;;39.50;29.90;;;2.90;99.90;;;;;;4960120;28;89144;-31
2022/03/11 07:04:44;;;;;;;32.42;21.48;;;2.90;99.90;;;;;;4959621;28;89918;-33
2022/03/11 07:07:10;;;;;;;27.52;20.38;;;2.90;99.90;;;;;;4958942;28;87865;-31
2022/03/11 07:09:35;;;;;;;26.58;20.77;;;3.10;99.90;;;;;;4959449;28;89860;-32
2022/03/11 07:12:03;;;;;;;39.78;26.77;;;3.10;99.90;;;;;;4959639;28;89343;-34
2022/03/11 07:14:30;;;;;;;39.10;26.60;;;3.30;99.90;;;;;;4941838;28;89673;-36
2022/03/11 07:16:56;;;;;;;31.88;24.77;;;3.30;99.90;;;;;;4959157;28;89275;-33
2022/03/11 07:19:29;;;;;;;30.17;22.70;;;3.40;99.90;;;;;;4965445;28;89903;-32
2022/03/11 07:21:56;;;;;;;37.95;26.52;;;3.50;99.90;;;;;;4978964;28;89888;-35
2022/03/11 07:24:21;;;;;;;32.58;23.00;;;3.70;99.90;;;;;;4978826;28;89717;-30
2022/03/11 07:26:47;;;;;;;36.58;25.55;;;3.90;99.90;;;;;;4978434;28;90104;-36
2022/03/11 07:29:12;;;;;;;34.05;22.63;;;4.00;99.90;;;;;;4979471;28;89105;-33
2022/03/11 07:31:38;;;;;;;31.13;26.60;;;4.20;99.90;;;;;;4977800;28;89929;-31
2022/03/11 07:34:04;;;;;;;38.08;28.25;;;4.30;99.90;;;;;;4978658;28;89273;-31
2022/03/11 07:36:30;;;;;;;40.97;29.13;;;4.30;99.90;;;;;;4978196;28;90001;-32
2022/03/11 07:38:57;;;;;;;33.60;22.13;;;4.40;99.90;;;;;;4978998;28;88828;-32
2022/03/11 07:41:22;;;;;;;36.83;25.77;;;4.40;99.90;;;;;;4979130;28;89862;-31
2022/03/11 07:43:48;;;;;;;36.90;24.38;;;4.50;99.90;;;;;;4978866;28;89658;-31
2022/03/11 07:46:14;;;;;;;39.42;26.48;;;4.50;99.90;;;;;;4978534;28;89339;-35
2022/03/11 07:48:41;;;;;;;34.38;26.55;;;4.60;99.90;;;;;;4978856;28;91533;-31
2022/03/11 07:51:07;;;;;;;31.25;22.48;;;4.70;99.90;;;;;;4978704;28;89669;-32
2022/03/11 07:53:33;;;;;;;24.20;19.30;;;4.80;99.90;;;;;;4979063;28;90117;-33
2022/03/11 07:55:59;;;;;;;34.78;25.60;;;5.00;99.90;;;;;;4978227;28;88459;-33
2022/03/11 07:58:25;;;;;;;40.45;27.25;;;5.20;99.90;;;;;;4978088;28;90884;-31
2022/03/11 08:00:52;;;;;;;26.20;20.10;;;5.30;99.90;;;;;;4977652;28;89408;-32
2022/03/11 08:03:18;;;;;;;37.20;27.02;;;5.50;99.90;;;;;;4978360;28;90170;-31
2022/03/11 08:05:44;;;;;;;38.10;26.50;;;5.60;99.90;;;;;;4978908;28;89376;-32
2022/03/11 08:08:10;;;;;;;33.40;24.70;;;5.70;99.90;;;;;;4977963;28;89870;-30
2022/03/11 08:10:37;;;;;;;31.23;24.48;;;5.90;99.90;;;;;;4978021;28;90732;-32
2022/03/11 08:13:06;;;;;;;32.83;25.13;;;6.00;99.90;;;;;;4978635;28;89598;-32
2022/03/11 08:15:33;;;;;;;38.90;27.98;;;6.10;99.90;;;;;;4978892;28;88461;-33
2022/03/11 08:17:59;;;;;;;40.40;26.35;;;6.20;99.90;;;;;;4978328;28;89979;-31
2022/03/11 08:20:25;;;;;;;38.95;23.40;;;6.30;99.90;;;;;;4977264;28;91346;-33
2022/03/11 08:22:51;;;;;;;34.50;26.60;;;6.40;99.90;;;;;;4960150;28;90649;-31
2022/03/11 08:25:17;;;;;;;27.50;20.67;;;6.60;99.90;;;;;;4960301;28;89633;-34
2022/03/11 08:27:44;;;;;;;32.15;24.70;;;6.60;99.50;;;;;;4977742;28;89269;-35
2022/03/11 08:30:10;;;;;;;33.33;24.80;;;6.60;97.20;;;;;;4978544;28;88926;-32
2022/03/11 08:32:37;;;;;;;28.10;22.02;;;6.60;98.50;;;;;;4977401;28;91358;-36
2022/03/11 08:35:06;;;;;;;32.45;23.73;;;6.60;99.90;;;;;;4978426;28;88928;-33
2022/03/11 08:37:32;;;;;;;31.58;23.45;;;6.80;97.90;;;;;;4963947;28;90319;-33
2022/03/11 08:39:58;;;;;;;37.05;25.63;;;6.90;99.80;;;;;;4976867;28;90147;-32
2022/03/11 08:42:24;;;;;;;32.78;25.92;;;7.10;96.30;;;;;;4975845;28;90109;-33
2022/03/11 08:44:50;;;;;;;35.72;26.15;;;7.20;96.10;;;;;;4975276;28;89410;-32
2022/03/11 08:47:15;;;;;;;30.92;18.52;;;7.30;95.80;;;;;;4975522;28;90328;-36
2022/03/11 08:49:41;;;;;;;33.17;25.05;;;7.40;90.30;;;;;;4975853;28;90180;-32
2022/03/11 08:52:07;;;;;;;40.95;28.08;;;7.40;89.10;;;;;;4976972;28;89461;-30
2022/03/11 08:54:32;;;;;;;29.83;17.55;;;7.50;92.70;;;;;;4975597;28;89034;-31
2022/03/11 08:56:59;;;;;;;31.70;22.65;;;7.60;83.90;;;;;;4975231;28;90512;-33
2022/03/11 08:59:25;;;;;;;34.70;26.48;;;7.70;83.80;;;;;;4974932;28;91239;-33
2022/03/11 09:01:51;;;;;;;37.00;24.73;;;7.80;79.40;;;;;;4975819;28;89751;-34
2022/03/11 09:04:17;;;;;;;27.13;19.27;;;7.80;78.00;;;;;;4976234;28;89459;-32
2022/03/11 09:06:43;;;;;;;35.38;23.08;;;7.90;78.10;;;;;;4954435;28;88807;-34
2022/03/11 09:09:08;;;;;;;31.17;21.80;;;7.90;77.00;;;;;;4953629;28;90722;-34
2022/03/11 09:11:35;;;;;;;34.95;23.60;;;8.00;75.80;;;;;;4956436;28;92531;-31
2022/03/11 09:14:00;;;;;;;29.63;21.77;;;8.00;75.70;;;;;;4958913;28;89165;-37
2022/03/11 09:16:26;;;;;;;36.85;27.15;;;8.00;77.40;;;;;;4959251;28;89729;-31
2022/03/11 09:18:54;;;;;;;35.50;23.33;;;8.10;77.90;;;;;;4958341;28;89822;-31
2022/03/11 09:21:20;;;;;;;24.10;21.27;;;8.20;81.10;;;;;;4958591;28;89719;-33
2022/03/11 09:23:47;;;;;;;33.75;20.92;;;8.40;73.50;;;;;;4959570;28;89080;-32
2022/03/11 09:26:13;;;;;;;31.13;23.05;;;8.50;71.50;;;;;;4958615;28;90385;-34
2022/03/11 09:28:40;;;;;;;35.22;26.17;;;8.50;71.70;;;;;;4959062;28;89719;-35
2022/03/11 09:31:08;;;;;;;37.30;25.08;;;8.40;74.90;;;;;;4959165;28;89523;-35
2022/03/11 09:33:38;;;;;;;33.05;23.48;;;8.70;74.70;;;;;;4958619;28;89257;-31
2022/03/11 09:36:05;;;;;;;32.42;25.38;;;8.90;72.40;;;;;;4959029;28;90906;-32
2022/03/11 09:38:31;;;;;;;33.33;23.60;;;9.00;70.00;;;;;;4958148;28;89234;-31
2022/03/11 09:40:58;;;;;;;28.08;21.35;;;9.10;67.80;;;;;;4959366;28;90055;-35
2022/03/11 09:43:25;;;;;;;34.72;24.50;;;9.20;67.10;;;;;;4958393;28;88759;-32
2022/03/11 09:45:51;;;;;;;31.00;16.73;;;9.30;67.30;;;;;;4958300;28;91700;-35
2022/03/11 09:48:18;;;;;;;34.58;24.02;;;9.40;67.30;;;;;;4958253;28;89931;-35
2022/03/11 09:50:44;;;;;;;33.05;23.25;;;9.50;65.10;;;;;;4958791;28;89373;-35
2022/03/11 09:53:11;;;;;;;44.47;26.45;;;9.60;64.00;;;;;;4958797;28;89866;-34
2022/03/11 09:55:39;;;;;;;75.03;28.33;;;9.70;62.90;;;;;;4957455;28;90457;-35
2022/03/11 09:58:04;;;;;;;69.53;27.88;;;9.70;64.00;;;;;;4957698;28;90645;-33
2022/03/11 10:00:30;;;;;;;32.38;21.73;;;9.80;63.60;;;;;;4958242;28;92038;-33
2022/03/11 10:02:56;;;;;;;33.53;22.58;;;9.90;61.80;;;;;;4958530;28;88224;-31
2022/03/11 10:05:22;;;;;;;32.20;23.63;;;9.80;61.70;;;;;;4958250;28;89962;-33
2022/03/11 10:08:04;;;;;;;30.23;19.13;;;9.80;62.30;;;;;;4958248;28;90254;-33
2022/03/11 10:10:30;;;;;;;33.80;25.85;;;9.80;62.20;;;;;;4958811;28;89924;-30
2022/03/11 10:12:56;;;;;;;27.55;24.13;;;9.80;61.60;;;;;;4959803;28;89621;-32
2022/03/11 10:15:27;;;;;;;39.33;25.15;;;9.80;62.00;;;;;;4978703;28;90418;-33
2022/03/11 10:17:53;;;;;;;31.65;24.23;;;9.90;63.40;;;;;;4978164;28;90070;-36
2022/03/11 10:20:19;;;;;;;27.98;19.65;;;10.10;62.30;;;;;;4978382;28;90336;-33
2022/03/11 10:22:45;;;;;;;27.95;20.90;;;10.20;60.60;;;;;;4976594;28;89367;-31
2022/03/11 10:25:19;;;;;;;36.35;24.13;;;10.20;59.90;;;;;;4978935;28;89632;-33
2022/03/11 10:28:07;;;;;;;29.58;18.65;;;10.20;60.10;;;;;;4977738;28;89680;-32
2022/03/11 10:30:34;;;;;;;;;;;10.10;59.60;;;;;;4978933;28;89738;-31
2022/03/11 10:33:03;;;;;;;29.75;21.88;;;10.20;59.10;;;;;;4980574;28;89224;-33
2022/03/11 10:35:30;;;;;;;33.38;24.00;;;10.10;60.00;;;;;;4978508;28;90466;-33
2022/03/11 10:38:17;;;;;;;27.48;23.13;;;10.10;59.30;;;;;;4978417;28;88372;-32
2022/03/11 10:40:58;;;;;;;32.28;24.40;;;10.10;59.50;;;;;;4978058;28;89585;-36
2022/03/11 10:43:26;;;;;;;26.77;21.70;;;10.10;61.60;;;;;;4978365;28;88337;-35
2022/03/11 10:45:57;;;;;;;31.47;24.10;;;10.30;60.70;;;;;;4977983;28;90564;-32
2022/03/11 10:48:47;;;;;;;26.15;18.77;;;10.40;59.70;;;;;;4976993;28;90274;-34
2022/03/11 10:51:25;;;;;;;33.63;24.35;;;10.40;58.80;;;;;;4978100;28;91465;-33
2022/03/11 10:53:51;;;;;;;28.95;22.38;;;10.40;58.40;;;;;;4977378;28;87751;-36
2022/03/11 10:56:34;;;;;;;26.80;21.67;;;10.40;58.10;;;;;;4976752;28;90478;-35
2022/03/11 10:59:03;;;;;;;27.30;20.20;;;10.40;58.80;;;;;;4977354;28;89765;-35
2022/03/11 11:01:39;;;;;;;32.72;22.42;;;10.50;57.90;;;;;;4977476;28;89576;-32
2022/03/11 11:04:07;;;;;;;39.53;22.73;;;10.40;59.20;;;;;;4977884;28;87916;-31
2022/03/11 11:06:34;;;;;;;23.15;15.25;;;10.50;58.80;;;;;;4976282;28;90197;-32
2022/03/11 11:09:01;;;;;;;46.17;20.08;;;10.70;59.10;;;;;;4977082;28;89429;-35
2022/03/11 11:11:27;;;;;;;36.78;23.00;;;10.70;57.10;;;;;;4977168;28;90198;-33
2022/03/11 11:13:52;;;;;;;27.88;20.20;;;10.60;57.70;;;;;;4976462;28;89408;-31
2022/03/11 11:16:25;;;;;;;28.35;21.55;;;10.60;57.20;;;;;;4977321;28;89002;-33
2022/03/11 11:18:58;;;;;;;29.63;20.17;;;10.70;56.70;;;;;;4976769;28;89841;-32
2022/03/11 11:21:25;;;;;;;25.88;21.60;;;10.70;57.30;;;;;;4943262;28;91457;-32
2022/03/11 11:23:54;;;;;;;27.77;20.70;;;10.80;58.20;;;;;;4976860;28;88396;-33
2022/03/11 11:26:23;;;;;;;25.02;21.80;;;10.80;57.70;;;;;;4976606;28;90394;-34
2022/03/11 11:28:52;;;;;;;32.45;17.67;;;10.90;56.00;;;;;;4976627;28;89784;-36
2022/03/11 11:31:20;;;;;;;28.00;20.48;;;11.10;55.30;;;;;;4977061;28;90015;-32
2022/03/11 11:33:46;;;;;;;30.30;22.67;;;11.10;56.10;;;;;;4977628;28;89198;-35
2022/03/11 11:36:12;;;;;;;29.30;21.23;;;11.10;55.10;;;;;;4977334;28;91051;-32
2022/03/11 11:38:39;;;;;;;24.65;19.55;;;11.10;55.40;;;;;;4975943;28;90539;-37
2022/03/11 11:41:31;;;;;;;26.30;20.00;;;11.30;54.90;;;;;;4977197;28;90788;-35
2022/03/11 11:44:00;;;;;;;20.42;15.48;;;11.30;55.10;;;;;;4974214;28;89176;-33
2022/03/11 11:46:27;;;;;;;29.70;20.30;;;11.40;54.20;;;;;;4976459;28;90267;-32
2022/03/11 11:48:53;;;;;;;28.10;21.30;;;11.40;56.00;;;;;;4977342;28;89393;-33
2022/03/11 11:51:20;;;;;;;25.88;20.55;;;11.50;54.20;;;;;;4976948;28;89420;-32
2022/03/11 11:53:49;;;;;;;26.25;19.30;;;11.60;53.60;;;;;;4976592;28;89211;-33
2022/03/11 11:56:43;;;;;;;27.88;20.67;;;11.60;54.60;;;;;;4976266;28;90296;-34
2022/03/11 11:59:18;;;;;;;21.42;17.13;;;11.80;53.80;;;;;;4976735;28;88742;-33
2022/03/11 12:01:53;;;;;;;21.75;18.35;;;11.90;52.80;;;;;;4976043;28;90298;-33
2022/03/11 12:04:38;;;;;;;23.15;18.80;;;11.80;52.90;;;;;;4976619;28;89264;-33
2022/03/11 12:07:09;;;;;;;24.38;19.58;;;11.80;52.60;;;;;;4977389;28;91092;-32
2022/03/11 12:09:47;;;;;;;28.08;20.83;;;11.90;53.90;;;;;;5008561;22;88630;-32
2022/03/11 12:12:19;;;;;;;25.88;18.52;;;11.90;54.00;;;;;;4957405;28;90076;-32
2022/03/11 12:14:54;;;;;;;26.58;16.58;;;12.00;53.70;;;;;;4956909;28;88475;-34
2022/03/11 12:17:38;;;;;;;36.28;20.63;;;12.10;52.40;;;;;;4956397;28;90132;-34
2022/03/11 12:20:32;;;;;;;26.25;21.02;;;12.10;53.00;;;;;;4956389;28;90179;-34
2022/03/11 12:23:19;;;;;;;24.48;18.98;;;12.10;53.00;;;;;;4960952;28;89742;-33
2022/03/11 12:25:49;;;;;;;23.10;17.80;;;12.20;52.50;;;;;;4970058;28;88960;-32
2022/03/11 12:28:33;;;;;;;27.13;19.45;;;12.20;52.40;;;;;;4956543;28;90111;-33
2022/03/11 12:31:00;;;;;;;39.72;19.90;;;12.20;52.70;;;;;;4956600;28;89542;-34
2022/03/11 12:33:34;;;;;;;27.53;19.10;;;12.30;51.50;;;;;;4956062;28;90804;-34
2022/03/11 12:36:03;;;;;;;26.63;19.55;;;12.40;51.80;;;;;;4956326;28;88863;-32